sensor_id;sensor_type;location;lat;lon;timestamp;P1;durP1;ratioP1;P2;durP2;ratioP2
4806;SDS011;2417;52.482;13.432;2023-12-14T00:01:48;76.27;;;25.57;;
4806;SDS011;2417;52.482;13.432;2023-12-14T00:04:19;72.93;;;22.60;;
4806;SDS011;2417;52.482;13.432;2023-12-14T00:06:47;80.43;;;27.70;;
4806;SDS011;2417;52.482;13.432;2023-12-14T00:09:15;80.73;;;29.90;;
4806;SDS011;2417;52.482;13.432;2023-12-14T00:11:43;69.13;;;23.30;;
4806;SDS011;2417;52.482;13.432;2023-12-14T00:14:12;79.77;;;26.47;;
4806;SDS011;2417;52.482;13.432;2023-12-14T00:16:40;91.63;;;30.40;;
4806;SDS011;2417;52.482;13.432;2023-12-14T00:19:08;94.17;;;30.60;;
4806;SDS011;2417;52.482;13.432;2023-12-14T00:21:36;82.73;;;25.17;;
4806;SDS011;2417;52.482;13.432;2023-12-14T00:24:04;91.43;;;26.47;;
4806;SDS011;2417;52.482;13.432;2023-12-14T00:26:32;73.40;;;21.40;;
4806;SDS011;2417;52.482;13.432;2023-12-14T00:28:59;78.70;;;22.93;;
4806;SDS011;2417;52.482;13.432;2023-12-14T00:31:29;84.80;;;27.70;;
4806;SDS011;2417;52.482;13.432;2023-12-14T00:33:57;82.77;;;26.97;;
4806;SDS011;2417;52.482;13.432;2023-12-14T00:36:27;94.77;;;29.03;;
4806;SDS011;2417;52.482;13.432;2023-12-14T00:38:55;95.50;;;29.73;;
4806;SDS011;2417;52.482;13.432;2023-12-14T00:41:23;97.80;;;32.87;;
4806;SDS011;2417;52.482;13.432;2023-12-14T00:43:51;82.03;;;27.20;;
4806;SDS011;2417;52.482;13.432;2023-12-14T00:46:19;72.77;;;25.47;;
4806;SDS011;2417;52.482;13.432;2023-12-14T00:48:48;74.50;;;26.83;;
4806;SDS011;2417;52.482;13.432;2023-12-14T00:51:16;73.97;;;26.70;;
4806;SDS011;2417;52.482;13.432;2023-12-14T00:53:45;86.63;;;24.93;;
4806;SDS011;2417;52.482;13.432;2023-12-14T00:56:13;95.07;;;30.80;;
4806;SDS011;2417;52.482;13.432;2023-12-14T00:58:43;73.87;;;25.40;;
4806;SDS011;2417;52.482;13.432;2023-12-14T01:01:11;86.60;;;27.43;;
4806;SDS011;2417;52.482;13.432;2023-12-14T01:03:41;98.93;;;33.80;;
4806;SDS011;2417;52.482;13.432;2023-12-14T01:06:10;74.33;;;25.90;;
4806;SDS011;2417;52.482;13.432;2023-12-14T01:08:38;78.33;;;26.80;;
4806;SDS011;2417;52.482;13.432;2023-12-14T01:11:06;84.03;;;30.33;;
4806;SDS011;2417;52.482;13.432;2023-12-14T01:13:34;79.50;;;24.00;;
4806;SDS011;2417;52.482;13.432;2023-12-14T01:16:02;90.23;;;28.17;;
4806;SDS011;2417;52.482;13.432;2023-12-14T01:18:30;79.23;;;29.20;;
4806;SDS011;2417;52.482;13.432;2023-12-14T01:20:58;73.33;;;22.40;;
4806;SDS011;2417;52.482;13.432;2023-12-14T01:23:28;103.60;;;33.43;;
4806;SDS011;2417;52.482;13.432;2023-12-14T01:25:56;75.70;;;26.40;;
4806;SDS011;2417;52.482;13.432;2023-12-14T01:28:24;81.20;;;24.70;;
4806;SDS011;2417;52.482;13.432;2023-12-14T01:30:52;75.83;;;23.83;;
4806;SDS011;2417;52.482;13.432;2023-12-14T01:33:22;76.37;;;24.67;;
4806;SDS011;2417;52.482;13.432;2023-12-14T01:35:59;65.67;;;22.90;;
4806;SDS011;2417;52.482;13.432;2023-12-14T01:38:28;70.77;;;24.57;;
4806;SDS011;2417;52.482;13.432;2023-12-14T01:40:56;66.10;;;22.90;;
4806;SDS011;2417;52.482;13.432;2023-12-14T01:43:26;83.60;;;29.40;;
4806;SDS011;2417;52.482;13.432;2023-12-14T01:45:54;78.93;;;24.90;;
4806;SDS011;2417;52.482;13.432;2023-12-14T01:48:21;88.50;;;25.33;;
4806;SDS011;2417;52.482;13.432;2023-12-14T01:50:49;74.83;;;25.23;;
4806;SDS011;2417;52.482;13.432;2023-12-14T01:53:17;65.63;;;21.40;;
4806;SDS011;2417;52.482;13.432;2023-12-14T01:55:46;60.93;;;21.83;;
4806;SDS011;2417;52.482;13.432;2023-12-14T01:58:15;80.00;;;28.40;;
4806;SDS011;2417;52.482;13.432;2023-12-14T02:00:43;74.50;;;24.60;;
4806;SDS011;2417;52.482;13.432;2023-12-14T02:03:13;56.80;;;20.93;;
4806;SDS011;2417;52.482;13.432;2023-12-14T02:05:42;76.97;;;23.60;;
4806;SDS011;2417;52.482;13.432;2023-12-14T02:08:10;52.53;;;20.37;;
4806;SDS011;2417;52.482;13.432;2023-12-14T02:10:38;64.90;;;25.80;;
4806;SDS011;2417;52.482;13.432;2023-12-14T02:13:10;59.27;;;19.13;;
4806;SDS011;2417;52.482;13.432;2023-12-14T02:15:39;57.47;;;20.17;;
4806;SDS011;2417;52.482;13.432;2023-12-14T02:18:07;53.73;;;17.77;;
4806;SDS011;2417;52.482;13.432;2023-12-14T02:20:36;53.63;;;20.23;;
4806;SDS011;2417;52.482;13.432;2023-12-14T02:23:06;52.80;;;19.20;;
4806;SDS011;2417;52.482;13.432;2023-12-14T02:25:35;54.13;;;19.90;;
4806;SDS011;2417;52.482;13.432;2023-12-14T02:28:03;50.97;;;19.60;;
4806;SDS011;2417;52.482;13.432;2023-12-14T02:30:31;46.83;;;16.77;;
4806;SDS011;2417;52.482;13.432;2023-12-14T02:32:59;68.60;;;26.80;;
4806;SDS011;2417;52.482;13.432;2023-12-14T02:35:26;40.83;;;15.50;;
4806;SDS011;2417;52.482;13.432;2023-12-14T02:37:54;61.10;;;21.63;;
4806;SDS011;2417;52.482;13.432;2023-12-14T02:40:24;40.00;;;16.13;;
4806;SDS011;2417;52.482;13.432;2023-12-14T02:42:52;44.60;;;17.30;;
4806;SDS011;2417;52.482;13.432;2023-12-14T02:45:19;55.37;;;20.50;;
4806;SDS011;2417;52.482;13.432;2023-12-14T02:47:47;48.30;;;17.40;;
4806;SDS011;2417;52.482;13.432;2023-12-14T02:50:16;55.60;;;22.63;;
4806;SDS011;2417;52.482;13.432;2023-12-14T02:52:44;47.87;;;19.17;;
4806;SDS011;2417;52.482;13.432;2023-12-14T02:55:12;58.70;;;21.00;;
4806;SDS011;2417;52.482;13.432;2023-12-14T02:57:41;62.20;;;23.20;;
4806;SDS011;2417;52.482;13.432;2023-12-14T03:00:10;49.60;;;19.57;;
4806;SDS011;2417;52.482;13.432;2023-12-14T03:02:38;59.93;;;20.23;;
4806;SDS011;2417;52.482;13.432;2023-12-14T03:05:06;61.00;;;22.50;;
4806;SDS011;2417;52.482;13.432;2023-12-14T03:07:36;60.93;;;23.40;;
4806;SDS011;2417;52.482;13.432;2023-12-14T03:10:04;56.60;;;18.83;;
4806;SDS011;2417;52.482;13.432;2023-12-14T03:12:33;64.03;;;23.77;;
4806;SDS011;2417;52.482;13.432;2023-12-14T03:15:02;76.90;;;29.43;;
4806;SDS011;2417;52.482;13.432;2023-12-14T03:17:30;57.87;;;21.50;;
4806;SDS011;2417;52.482;13.432;2023-12-14T03:19:58;62.67;;;21.20;;
4806;SDS011;2417;52.482;13.432;2023-12-14T03:22:26;67.63;;;24.77;;
4806;SDS011;2417;52.482;13.432;2023-12-14T03:24:54;56.33;;;21.17;;
4806;SDS011;2417;52.482;13.432;2023-12-14T03:27:22;64.63;;;21.60;;
4806;SDS011;2417;52.482;13.432;2023-12-14T03:29:51;62.03;;;19.80;;
4806;SDS011;2417;52.482;13.432;2023-12-14T03:32:20;54.67;;;21.07;;
4806;SDS011;2417;52.482;13.432;2023-12-14T03:34:48;61.57;;;21.00;;
4806;SDS011;2417;52.482;13.432;2023-12-14T03:37:16;65.47;;;20.20;;
4806;SDS011;2417;52.482;13.432;2023-12-14T03:39:44;51.03;;;16.70;;
4806;SDS011;2417;52.482;13.432;2023-12-14T03:42:12;49.60;;;18.03;;
4806;SDS011;2417;52.482;13.432;2023-12-14T03:44:40;62.80;;;20.10;;
4806;SDS011;2417;52.482;13.432;2023-12-14T03:47:08;54.07;;;19.00;;
4806;SDS011;2417;52.482;13.432;2023-12-14T03:49:38;72.97;;;23.23;;
4806;SDS011;2417;52.482;13.432;2023-12-14T03:52:06;89.93;;;24.47;;
4806;SDS011;2417;52.482;13.432;2023-12-14T03:54:34;58.33;;;18.63;;
4806;SDS011;2417;52.482;13.432;2023-12-14T03:57:02;69.07;;;23.97;;
4806;SDS011;2417;52.482;13.432;2023-12-14T03:59:30;83.07;;;24.33;;
4806;SDS011;2417;52.482;13.432;2023-12-14T04:01:59;68.50;;;22.30;;
4806;SDS011;2417;52.482;13.432;2023-12-14T04:04:27;73.10;;;22.47;;
4806;SDS011;2417;52.482;13.432;2023-12-14T04:06:56;59.00;;;19.00;;
4806;SDS011;2417;52.482;13.432;2023-12-14T04:09:24;62.13;;;20.50;;
4806;SDS011;2417;52.482;13.432;2023-12-14T04:11:52;58.50;;;21.83;;
4806;SDS011;2417;52.482;13.432;2023-12-14T04:14:20;66.47;;;19.90;;
4806;SDS011;2417;52.482;13.432;2023-12-14T04:16:48;71.47;;;23.87;;
4806;SDS011;2417;52.482;13.432;2023-12-14T04:19:16;57.80;;;22.33;;
4806;SDS011;2417;52.482;13.432;2023-12-14T04:21:44;59.93;;;20.50;;
4806;SDS011;2417;52.482;13.432;2023-12-14T04:24:13;58.30;;;17.97;;
4806;SDS011;2417;52.482;13.432;2023-12-14T04:26:41;59.70;;;19.40;;
4806;SDS011;2417;52.482;13.432;2023-12-14T04:29:09;62.40;;;21.63;;
4806;SDS011;2417;52.482;13.432;2023-12-14T04:31:37;53.50;;;20.47;;
4806;SDS011;2417;52.482;13.432;2023-12-14T04:34:05;53.30;;;19.97;;
4806;SDS011;2417;52.482;13.432;2023-12-14T04:36:38;46.03;;;16.20;;
4806;SDS011;2417;52.482;13.432;2023-12-14T04:39:07;45.43;;;16.37;;
4806;SDS011;2417;52.482;13.432;2023-12-14T04:41:36;50.33;;;16.87;;
4806;SDS011;2417;52.482;13.432;2023-12-14T04:44:04;50.40;;;17.83;;
4806;SDS011;2417;52.482;13.432;2023-12-14T04:46:32;49.27;;;18.57;;
4806;SDS011;2417;52.482;13.432;2023-12-14T04:49:00;51.27;;;19.80;;
4806;SDS011;2417;52.482;13.432;2023-12-14T04:51:28;48.33;;;18.37;;
4806;SDS011;2417;52.482;13.432;2023-12-14T04:53:57;52.47;;;19.37;;
4806;SDS011;2417;52.482;13.432;2023-12-14T04:56:24;67.00;;;27.73;;
4806;SDS011;2417;52.482;13.432;2023-12-14T04:58:54;62.43;;;22.43;;
4806;SDS011;2417;52.482;13.432;2023-12-14T05:01:22;46.10;;;16.83;;
4806;SDS011;2417;52.482;13.432;2023-12-14T05:03:50;43.20;;;15.60;;
4806;SDS011;2417;52.482;13.432;2023-12-14T05:06:18;50.33;;;19.13;;
4806;SDS011;2417;52.482;13.432;2023-12-14T05:08:46;47.33;;;15.67;;
4806;SDS011;2417;52.482;13.432;2023-12-14T05:11:13;47.90;;;18.57;;
4806;SDS011;2417;52.482;13.432;2023-12-14T05:13:41;46.87;;;17.90;;
4806;SDS011;2417;52.482;13.432;2023-12-14T05:16:13;42.03;;;15.40;;
4806;SDS011;2417;52.482;13.432;2023-12-14T05:18:44;45.07;;;15.47;;
4806;SDS011;2417;52.482;13.432;2023-12-14T05:21:16;46.40;;;16.63;;
4806;SDS011;2417;52.482;13.432;2023-12-14T05:23:44;46.60;;;15.77;;
4806;SDS011;2417;52.482;13.432;2023-12-14T05:26:12;51.77;;;17.97;;
4806;SDS011;2417;52.482;13.432;2023-12-14T05:28:40;44.70;;;17.43;;
4806;SDS011;2417;52.482;13.432;2023-12-14T05:31:07;62.97;;;22.70;;
4806;SDS011;2417;52.482;13.432;2023-12-14T05:33:37;49.03;;;19.57;;
4806;SDS011;2417;52.482;13.432;2023-12-14T05:36:06;44.97;;;17.20;;
4806;SDS011;2417;52.482;13.432;2023-12-14T05:38:37;47.07;;;18.90;;
4806;SDS011;2417;52.482;13.432;2023-12-14T05:41:05;55.70;;;18.93;;
4806;SDS011;2417;52.482;13.432;2023-12-14T05:43:33;44.37;;;16.07;;
4806;SDS011;2417;52.482;13.432;2023-12-14T05:46:02;48.17;;;17.33;;
4806;SDS011;2417;52.482;13.432;2023-12-14T05:48:30;48.43;;;18.67;;
4806;SDS011;2417;52.482;13.432;2023-12-14T05:50:59;48.33;;;17.20;;
4806;SDS011;2417;52.482;13.432;2023-12-14T05:53:27;47.70;;;18.13;;
4806;SDS011;2417;52.482;13.432;2023-12-14T05:55:55;44.43;;;17.50;;
4806;SDS011;2417;52.482;13.432;2023-12-14T05:58:23;45.10;;;19.83;;
4806;SDS011;2417;52.482;13.432;2023-12-14T06:00:52;50.37;;;20.10;;
4806;SDS011;2417;52.482;13.432;2023-12-14T06:03:20;40.40;;;16.20;;
4806;SDS011;2417;52.482;13.432;2023-12-14T06:05:48;49.83;;;19.03;;
4806;SDS011;2417;52.482;13.432;2023-12-14T06:08:17;46.70;;;16.97;;
4806;SDS011;2417;52.482;13.432;2023-12-14T06:10:45;45.10;;;17.70;;
4806;SDS011;2417;52.482;13.432;2023-12-14T06:13:13;46.47;;;17.50;;
4806;SDS011;2417;52.482;13.432;2023-12-14T06:15:41;56.00;;;21.40;;
4806;SDS011;2417;52.482;13.432;2023-12-14T06:18:09;40.57;;;16.47;;
4806;SDS011;2417;52.482;13.432;2023-12-14T06:20:38;35.50;;;14.63;;
4806;SDS011;2417;52.482;13.432;2023-12-14T06:23:07;40.10;;;17.77;;
4806;SDS011;2417;52.482;13.432;2023-12-14T06:25:37;36.37;;;14.70;;
4806;SDS011;2417;52.482;13.432;2023-12-14T06:28:05;45.57;;;17.30;;
4806;SDS011;2417;52.482;13.432;2023-12-14T06:30:33;37.00;;;16.17;;
4806;SDS011;2417;52.482;13.432;2023-12-14T06:33:01;40.00;;;16.50;;
4806;SDS011;2417;52.482;13.432;2023-12-14T06:35:29;40.07;;;15.20;;
4806;SDS011;2417;52.482;13.432;2023-12-14T06:37:57;39.67;;;16.47;;
4806;SDS011;2417;52.482;13.432;2023-12-14T06:40:25;38.10;;;17.60;;
4806;SDS011;2417;52.482;13.432;2023-12-14T06:42:54;37.73;;;17.50;;
4806;SDS011;2417;52.482;13.432;2023-12-14T06:45:22;40.80;;;17.00;;
4806;SDS011;2417;52.482;13.432;2023-12-14T06:47:50;46.27;;;19.60;;
4806;SDS011;2417;52.482;13.432;2023-12-14T06:50:18;40.37;;;18.00;;
4806;SDS011;2417;52.482;13.432;2023-12-14T06:52:46;47.80;;;18.87;;
4806;SDS011;2417;52.482;13.432;2023-12-14T06:55:17;39.27;;;16.80;;
4806;SDS011;2417;52.482;13.432;2023-12-14T06:57:44;42.07;;;16.43;;
4806;SDS011;2417;52.482;13.432;2023-12-14T07:00:15;39.47;;;15.97;;
4806;SDS011;2417;52.482;13.432;2023-12-14T07:02:43;38.93;;;16.40;;
4806;SDS011;2417;52.482;13.432;2023-12-14T07:05:11;41.93;;;19.57;;
4806;SDS011;2417;52.482;13.432;2023-12-14T07:07:40;40.77;;;17.57;;
4806;SDS011;2417;52.482;13.432;2023-12-14T07:10:09;54.33;;;20.03;;
4806;SDS011;2417;52.482;13.432;2023-12-14T07:12:37;46.87;;;18.87;;
4806;SDS011;2417;52.482;13.432;2023-12-14T07:15:05;53.07;;;20.87;;
4806;SDS011;2417;52.482;13.432;2023-12-14T07:17:35;48.93;;;19.00;;
4806;SDS011;2417;52.482;13.432;2023-12-14T07:20:03;56.07;;;18.63;;
4806;SDS011;2417;52.482;13.432;2023-12-14T07:22:32;48.87;;;20.67;;
4806;SDS011;2417;52.482;13.432;2023-12-14T07:25:01;57.40;;;21.63;;
4806;SDS011;2417;52.482;13.432;2023-12-14T07:27:30;57.13;;;21.73;;
4806;SDS011;2417;52.482;13.432;2023-12-14T07:29:58;54.33;;;19.40;;
4806;SDS011;2417;52.482;13.432;2023-12-14T07:32:25;47.50;;;17.80;;
4806;SDS011;2417;52.482;13.432;2023-12-14T07:34:55;63.07;;;22.80;;
4806;SDS011;2417;52.482;13.432;2023-12-14T07:37:24;49.33;;;20.80;;
4806;SDS011;2417;52.482;13.432;2023-12-14T07:39:52;50.13;;;19.10;;
4806;SDS011;2417;52.482;13.432;2023-12-14T07:42:20;51.73;;;20.40;;
4806;SDS011;2417;52.482;13.432;2023-12-14T07:44:48;49.67;;;20.37;;
4806;SDS011;2417;52.482;13.432;2023-12-14T07:47:18;48.60;;;18.37;;
4806;SDS011;2417;52.482;13.432;2023-12-14T07:49:46;49.20;;;18.60;;
4806;SDS011;2417;52.482;13.432;2023-12-14T07:52:16;51.70;;;20.63;;
4806;SDS011;2417;52.482;13.432;2023-12-14T07:54:43;54.93;;;19.70;;
4806;SDS011;2417;52.482;13.432;2023-12-14T07:57:12;55.33;;;22.17;;
4806;SDS011;2417;52.482;13.432;2023-12-14T07:59:40;51.63;;;19.13;;
4806;SDS011;2417;52.482;13.432;2023-12-14T08:02:08;60.83;;;21.17;;
4806;SDS011;2417;52.482;13.432;2023-12-14T08:04:36;57.73;;;22.27;;
4806;SDS011;2417;52.482;13.432;2023-12-14T08:07:04;53.00;;;20.10;;
4806;SDS011;2417;52.482;13.432;2023-12-14T08:09:33;59.97;;;21.83;;
4806;SDS011;2417;52.482;13.432;2023-12-14T08:12:01;60.23;;;22.53;;
4806;SDS011;2417;52.482;13.432;2023-12-14T08:14:29;57.00;;;22.33;;
4806;SDS011;2417;52.482;13.432;2023-12-14T08:16:59;60.13;;;23.17;;
4806;SDS011;2417;52.482;13.432;2023-12-14T08:19:28;62.77;;;23.50;;
4806;SDS011;2417;52.482;13.432;2023-12-14T08:21:56;62.10;;;22.60;;
4806;SDS011;2417;52.482;13.432;2023-12-14T08:24:25;57.83;;;21.17;;
4806;SDS011;2417;52.482;13.432;2023-12-14T08:26:54;61.20;;;21.27;;
4806;SDS011;2417;52.482;13.432;2023-12-14T08:29:22;63.17;;;23.20;;
4806;SDS011;2417;52.482;13.432;2023-12-14T08:31:50;62.60;;;23.70;;
4806;SDS011;2417;52.482;13.432;2023-12-14T08:34:18;62.93;;;23.10;;
4806;SDS011;2417;52.482;13.432;2023-12-14T08:36:46;63.80;;;23.50;;
4806;SDS011;2417;52.482;13.432;2023-12-14T08:39:14;62.80;;;23.77;;
4806;SDS011;2417;52.482;13.432;2023-12-14T08:41:42;54.70;;;21.83;;
4806;SDS011;2417;52.482;13.432;2023-12-14T08:44:13;66.30;;;22.67;;
4806;SDS011;2417;52.482;13.432;2023-12-14T08:46:41;60.03;;;21.87;;
4806;SDS011;2417;52.482;13.432;2023-12-14T08:49:10;60.30;;;23.30;;
4806;SDS011;2417;52.482;13.432;2023-12-14T08:51:38;63.20;;;25.53;;
4806;SDS011;2417;52.482;13.432;2023-12-14T08:54:06;60.77;;;22.03;;
4806;SDS011;2417;52.482;13.432;2023-12-14T08:56:36;51.77;;;21.47;;
4806;SDS011;2417;52.482;13.432;2023-12-14T08:59:03;51.87;;;21.77;;
4806;SDS011;2417;52.482;13.432;2023-12-14T09:01:33;53.77;;;20.30;;
4806;SDS011;2417;52.482;13.432;2023-12-14T09:04:01;57.83;;;21.90;;
4806;SDS011;2417;52.482;13.432;2023-12-14T09:06:32;54.03;;;22.00;;
4806;SDS011;2417;52.482;13.432;2023-12-14T09:09:00;55.60;;;23.00;;
4806;SDS011;2417;52.482;13.432;2023-12-14T09:11:29;59.33;;;21.73;;
4806;SDS011;2417;52.482;13.432;2023-12-14T09:13:57;57.23;;;22.83;;
4806;SDS011;2417;52.482;13.432;2023-12-14T09:16:25;53.87;;;22.33;;
4806;SDS011;2417;52.482;13.432;2023-12-14T09:18:54;59.47;;;22.17;;
4806;SDS011;2417;52.482;13.432;2023-12-14T09:21:22;50.70;;;21.87;;
4806;SDS011;2417;52.482;13.432;2023-12-14T09:24:06;50.73;;;21.17;;
4806;SDS011;2417;52.482;13.432;2023-12-14T09:26:38;52.33;;;19.93;;
4806;SDS011;2417;52.482;13.432;2023-12-14T09:29:06;50.40;;;21.33;;
4806;SDS011;2417;52.482;13.432;2023-12-14T09:31:34;48.50;;;20.30;;
4806;SDS011;2417;52.482;13.432;2023-12-14T09:34:05;55.53;;;20.47;;
4806;SDS011;2417;52.482;13.432;2023-12-14T09:36:32;52.20;;;19.77;;
4806;SDS011;2417;52.482;13.432;2023-12-14T09:39:00;55.30;;;20.60;;
4806;SDS011;2417;52.482;13.432;2023-12-14T09:41:29;42.60;;;18.50;;
4806;SDS011;2417;52.482;13.432;2023-12-14T09:43:57;43.00;;;18.43;;
4806;SDS011;2417;52.482;13.432;2023-12-14T09:46:26;44.07;;;17.77;;
4806;SDS011;2417;52.482;13.432;2023-12-14T09:48:54;38.70;;;17.17;;
4806;SDS011;2417;52.482;13.432;2023-12-14T09:51:24;40.83;;;18.33;;
4806;SDS011;2417;52.482;13.432;2023-12-14T09:53:53;37.30;;;16.40;;
4806;SDS011;2417;52.482;13.432;2023-12-14T09:56:24;36.07;;;16.83;;
4806;SDS011;2417;52.482;13.432;2023-12-14T09:58:52;38.10;;;17.83;;
4806;SDS011;2417;52.482;13.432;2023-12-14T10:01:21;36.60;;;16.30;;
4806;SDS011;2417;52.482;13.432;2023-12-14T10:03:50;36.70;;;16.20;;
4806;SDS011;2417;52.482;13.432;2023-12-14T10:06:18;41.73;;;17.13;;
4806;SDS011;2417;52.482;13.432;2023-12-14T10:08:54;36.53;;;16.13;;
4806;SDS011;2417;52.482;13.432;2023-12-14T10:11:23;36.80;;;15.43;;
4806;SDS011;2417;52.482;13.432;2023-12-14T10:13:51;40.40;;;17.17;;
4806;SDS011;2417;52.482;13.432;2023-12-14T10:16:27;41.93;;;17.37;;
4806;SDS011;2417;52.482;13.432;2023-12-14T10:18:55;39.77;;;17.10;;
4806;SDS011;2417;52.482;13.432;2023-12-14T10:21:23;46.10;;;18.37;;
4806;SDS011;2417;52.482;13.432;2023-12-14T10:23:51;51.70;;;19.40;;
4806;SDS011;2417;52.482;13.432;2023-12-14T10:26:22;49.77;;;20.70;;
4806;SDS011;2417;52.482;13.432;2023-12-14T10:28:50;48.93;;;19.47;;
4806;SDS011;2417;52.482;13.432;2023-12-14T10:31:19;55.27;;;20.40;;
4806;SDS011;2417;52.482;13.432;2023-12-14T10:33:48;49.93;;;20.03;;
4806;SDS011;2417;52.482;13.432;2023-12-14T10:36:17;57.97;;;21.03;;
4806;SDS011;2417;52.482;13.432;2023-12-14T10:38:46;46.50;;;19.80;;
4806;SDS011;2417;52.482;13.432;2023-12-14T10:41:15;62.03;;;25.83;;
4806;SDS011;2417;52.482;13.432;2023-12-14T10:43:46;54.43;;;20.87;;
4806;SDS011;2417;52.482;13.432;2023-12-14T10:46:36;56.10;;;22.23;;
4806;SDS011;2417;52.482;13.432;2023-12-14T10:49:04;58.47;;;23.10;;
4806;SDS011;2417;52.482;13.432;2023-12-14T10:51:33;61.50;;;23.50;;
4806;SDS011;2417;52.482;13.432;2023-12-14T10:54:01;49.80;;;19.33;;
4806;SDS011;2417;52.482;13.432;2023-12-14T10:56:29;50.70;;;20.77;;
4806;SDS011;2417;52.482;13.432;2023-12-14T10:58:59;48.30;;;20.17;;
4806;SDS011;2417;52.482;13.432;2023-12-14T11:01:27;53.47;;;20.20;;
4806;SDS011;2417;52.482;13.432;2023-12-14T11:03:56;55.50;;;22.00;;
4806;SDS011;2417;52.482;13.432;2023-12-14T11:06:30;54.60;;;22.63;;
4806;SDS011;2417;52.482;13.432;2023-12-14T11:08:59;58.60;;;21.90;;
4806;SDS011;2417;52.482;13.432;2023-12-14T11:11:28;55.57;;;24.00;;
4806;SDS011;2417;52.482;13.432;2023-12-14T11:13:56;60.47;;;22.80;;
4806;SDS011;2417;52.482;13.432;2023-12-14T11:16:26;62.87;;;24.73;;
4806;SDS011;2417;52.482;13.432;2023-12-14T11:21:42;70.17;;;24.70;;
4806;SDS011;2417;52.482;13.432;2023-12-14T11:24:11;63.13;;;23.90;;
4806;SDS011;2417;52.482;13.432;2023-12-14T11:26:40;59.03;;;23.80;;
4806;SDS011;2417;52.482;13.432;2023-12-14T11:29:08;64.93;;;23.70;;
4806;SDS011;2417;52.482;13.432;2023-12-14T11:31:39;56.10;;;23.60;;
4806;SDS011;2417;52.482;13.432;2023-12-14T11:34:07;55.17;;;21.73;;
4806;SDS011;2417;52.482;13.432;2023-12-14T11:36:36;60.53;;;24.07;;
4806;SDS011;2417;52.482;13.432;2023-12-14T11:39:06;55.63;;;22.63;;
4806;SDS011;2417;52.482;13.432;2023-12-14T11:41:36;58.33;;;22.77;;
4806;SDS011;2417;52.482;13.432;2023-12-14T11:44:05;59.23;;;23.57;;
4806;SDS011;2417;52.482;13.432;2023-12-14T11:46:34;52.03;;;20.87;;
4806;SDS011;2417;52.482;13.432;2023-12-14T11:49:03;61.83;;;25.00;;
4806;SDS011;2417;52.482;13.432;2023-12-14T11:51:32;63.10;;;24.67;;
4806;SDS011;2417;52.482;13.432;2023-12-14T11:54:00;53.20;;;23.57;;
4806;SDS011;2417;52.482;13.432;2023-12-14T11:56:28;56.50;;;24.67;;
4806;SDS011;2417;52.482;13.432;2023-12-14T11:58:57;57.67;;;22.37;;
4806;SDS011;2417;52.482;13.432;2023-12-14T12:01:25;57.53;;;24.17;;
4806;SDS011;2417;52.482;13.432;2023-12-14T12:03:54;58.17;;;23.23;;
4806;SDS011;2417;52.482;13.432;2023-12-14T12:06:24;56.90;;;23.60;;
4806;SDS011;2417;52.482;13.432;2023-12-14T12:08:54;60.80;;;24.40;;
4806;SDS011;2417;52.482;13.432;2023-12-14T12:11:22;53.07;;;23.03;;
4806;SDS011;2417;52.482;13.432;2023-12-14T12:13:51;56.33;;;23.83;;
4806;SDS011;2417;52.482;13.432;2023-12-14T12:16:20;55.87;;;24.87;;
4806;SDS011;2417;52.482;13.432;2023-12-14T12:18:49;56.27;;;21.57;;
4806;SDS011;2417;52.482;13.432;2023-12-14T12:21:18;60.07;;;23.73;;
4806;SDS011;2417;52.482;13.432;2023-12-14T12:23:47;51.43;;;21.97;;
4806;SDS011;2417;52.482;13.432;2023-12-14T12:26:15;52.57;;;22.87;;
4806;SDS011;2417;52.482;13.432;2023-12-14T12:28:43;50.47;;;21.10;;
4806;SDS011;2417;52.482;13.432;2023-12-14T12:31:14;49.20;;;22.57;;
4806;SDS011;2417;52.482;13.432;2023-12-14T12:33:42;56.57;;;24.03;;
4806;SDS011;2417;52.482;13.432;2023-12-14T12:36:10;51.37;;;22.90;;
4806;SDS011;2417;52.482;13.432;2023-12-14T12:38:38;52.47;;;23.03;;
4806;SDS011;2417;52.482;13.432;2023-12-14T12:41:09;55.37;;;24.27;;
4806;SDS011;2417;52.482;13.432;2023-12-14T12:43:36;49.00;;;21.17;;
4806;SDS011;2417;52.482;13.432;2023-12-14T12:46:05;58.00;;;26.23;;
4806;SDS011;2417;52.482;13.432;2023-12-14T12:48:33;59.23;;;25.13;;
4806;SDS011;2417;52.482;13.432;2023-12-14T12:51:02;50.63;;;23.57;;
4806;SDS011;2417;52.482;13.432;2023-12-14T12:53:31;61.10;;;23.33;;
4806;SDS011;2417;52.482;13.432;2023-12-14T12:55:59;63.57;;;23.80;;
4806;SDS011;2417;52.482;13.432;2023-12-14T12:58:29;46.80;;;21.03;;
4806;SDS011;2417;52.482;13.432;2023-12-14T13:00:57;51.57;;;22.83;;
4806;SDS011;2417;52.482;13.432;2023-12-14T13:03:25;49.67;;;22.03;;
4806;SDS011;2417;52.482;13.432;2023-12-14T13:05:53;46.50;;;20.80;;
4806;SDS011;2417;52.482;13.432;2023-12-14T13:08:21;56.20;;;23.00;;
4806;SDS011;2417;52.482;13.432;2023-12-14T13:10:49;50.00;;;21.33;;
4806;SDS011;2417;52.482;13.432;2023-12-14T13:13:21;49.20;;;21.70;;
4806;SDS011;2417;52.482;13.432;2023-12-14T13:15:50;43.80;;;21.40;;
4806;SDS011;2417;52.482;13.432;2023-12-14T13:18:19;48.03;;;20.83;;
4806;SDS011;2417;52.482;13.432;2023-12-14T13:20:47;47.80;;;21.13;;
4806;SDS011;2417;52.482;13.432;2023-12-14T13:23:16;47.07;;;19.83;;
4806;SDS011;2417;52.482;13.432;2023-12-14T13:25:44;47.33;;;21.17;;
4806;SDS011;2417;52.482;13.432;2023-12-14T13:28:13;42.80;;;20.97;;
4806;SDS011;2417;52.482;13.432;2023-12-14T13:30:43;42.20;;;21.20;;
4806;SDS011;2417;52.482;13.432;2023-12-14T13:33:13;45.30;;;21.83;;
4806;SDS011;2417;52.482;13.432;2023-12-14T13:35:41;42.90;;;21.43;;
4806;SDS011;2417;52.482;13.432;2023-12-14T13:38:09;41.67;;;20.70;;
4806;SDS011;2417;52.482;13.432;2023-12-14T13:40:37;44.30;;;21.07;;
4806;SDS011;2417;52.482;13.432;2023-12-14T13:43:05;48.10;;;22.43;;
4806;SDS011;2417;52.482;13.432;2023-12-14T13:45:37;45.37;;;20.70;;
4806;SDS011;2417;52.482;13.432;2023-12-14T13:48:06;42.67;;;21.30;;
4806;SDS011;2417;52.482;13.432;2023-12-14T13:50:36;44.33;;;21.20;;
4806;SDS011;2417;52.482;13.432;2023-12-14T13:53:04;48.50;;;23.87;;
4806;SDS011;2417;52.482;13.432;2023-12-14T13:55:32;49.00;;;23.10;;
4806;SDS011;2417;52.482;13.432;2023-12-14T13:58:01;50.87;;;23.87;;
4806;SDS011;2417;52.482;13.432;2023-12-14T14:00:29;49.43;;;24.10;;
4806;SDS011;2417;52.482;13.432;2023-12-14T14:02:57;49.90;;;25.00;;
4806;SDS011;2417;52.482;13.432;2023-12-14T14:05:25;48.80;;;22.53;;
4806;SDS011;2417;52.482;13.432;2023-12-14T14:07:54;48.37;;;21.30;;
4806;SDS011;2417;52.482;13.432;2023-12-14T14:10:22;47.43;;;22.57;;
4806;SDS011;2417;52.482;13.432;2023-12-14T14:12:50;44.43;;;21.67;;
4806;SDS011;2417;52.482;13.432;2023-12-14T14:15:18;45.27;;;21.03;;
4806;SDS011;2417;52.482;13.432;2023-12-14T14:17:46;46.70;;;22.23;;
4806;SDS011;2417;52.482;13.432;2023-12-14T14:20:18;50.63;;;23.50;;
4806;SDS011;2417;52.482;13.432;2023-12-14T14:22:47;48.53;;;22.87;;
4806;SDS011;2417;52.482;13.432;2023-12-14T14:25:17;46.20;;;22.47;;
4806;SDS011;2417;52.482;13.432;2023-12-14T14:27:45;45.50;;;21.83;;
4806;SDS011;2417;52.482;13.432;2023-12-14T14:30:14;41.67;;;18.60;;
4806;SDS011;2417;52.482;13.432;2023-12-14T14:32:42;43.93;;;20.53;;
4806;SDS011;2417;52.482;13.432;2023-12-14T14:35:12;46.70;;;20.10;;
4806;SDS011;2417;52.482;13.432;2023-12-14T14:37:40;38.10;;;20.00;;
4806;SDS011;2417;52.482;13.432;2023-12-14T14:40:13;45.97;;;20.83;;
4806;SDS011;2417;52.482;13.432;2023-12-14T14:42:43;52.23;;;22.20;;
4806;SDS011;2417;52.482;13.432;2023-12-14T14:45:11;40.93;;;20.77;;